sensor_id;sensor_type;location;lat;lon;timestamp;P1;durP1;ratioP1;P2;durP2;ratioP2
75768;SDS011;64379;48.888;8.330;2022-11-21T00:00:29;2.25;;;0.70;;
75768;SDS011;64379;48.888;8.330;2022-11-21T00:02:59;3.90;;;0.68;;
75768;SDS011;64379;48.888;8.330;2022-11-21T00:05:26;2.63;;;0.68;;
75768;SDS011;64379;48.888;8.330;2022-11-21T00:07:53;1.80;;;0.75;;
75768;SDS011;64379;48.888;8.330;2022-11-21T00:10:18;2.55;;;0.80;;
75768;SDS011;64379;48.888;8.330;2022-11-21T00:12:44;4.22;;;1.10;;
75768;SDS011;64379;48.888;8.330;2022-11-21T00:15:10;4.57;;;1.00;;
75768;SDS011;64379;48.888;8.330;2022-11-21T00:17:35;5.18;;;1.00;;
75768;SDS011;64379;48.888;8.330;2022-11-21T00:20:01;5.50;;;1.20;;
75768;SDS011;64379;48.888;8.330;2022-11-21T00:22:26;3.55;;;1.02;;
75768;SDS011;64379;48.888;8.330;2022-11-21T00:24:52;3.10;;;0.90;;
75768;SDS011;64379;48.888;8.330;2022-11-21T00:27:18;3.58;;;0.70;;
75768;SDS011;64379;48.888;8.330;2022-11-21T00:29:43;4.18;;;0.90;;
75768;SDS011;64379;48.888;8.330;2022-11-21T00:32:09;3.83;;;1.23;;
75768;SDS011;64379;48.888;8.330;2022-11-21T00:34:34;5.22;;;1.08;;
75768;SDS011;64379;48.888;8.330;2022-11-21T00:37:00;1.70;;;0.70;;
75768;SDS011;64379;48.888;8.330;2022-11-21T00:39:25;1.48;;;0.80;;
75768;SDS011;64379;48.888;8.330;2022-11-21T00:41:51;2.88;;;1.02;;
75768;SDS011;64379;48.888;8.330;2022-11-21T00:44:16;7.28;;;1.23;;
75768;SDS011;64379;48.888;8.330;2022-11-21T00:46:42;6.68;;;1.20;;
75768;SDS011;64379;48.888;8.330;2022-11-21T00:49:08;6.50;;;0.90;;
75768;SDS011;64379;48.888;8.330;2022-11-21T00:51:33;2.33;;;0.57;;
75768;SDS011;64379;48.888;8.330;2022-11-21T00:53:59;3.40;;;1.00;;
75768;SDS011;64379;48.888;8.330;2022-11-21T00:56:24;3.55;;;0.82;;
75768;SDS011;64379;48.888;8.330;2022-11-21T00:58:50;3.03;;;0.75;;
75768;SDS011;64379;48.888;8.330;2022-11-21T01:01:15;4.75;;;1.10;;
75768;SDS011;64379;48.888;8.330;2022-11-21T01:03:41;2.42;;;0.77;;
75768;SDS011;64379;48.888;8.330;2022-11-21T01:06:08;4.43;;;0.80;;
75768;SDS011;64379;48.888;8.330;2022-11-21T01:08:35;2.90;;;1.00;;
75768;SDS011;64379;48.888;8.330;2022-11-21T01:11:06;5.28;;;1.10;;
75768;SDS011;64379;48.888;8.330;2022-11-21T01:13:37;6.93;;;1.38;;
75768;SDS011;64379;48.888;8.330;2022-11-21T01:16:08;0.85;;;0.47;;
75768;SDS011;64379;48.888;8.330;2022-11-21T01:18:35;6.03;;;1.23;;
75768;SDS011;64379;48.888;8.330;2022-11-21T01:21:02;10.68;;;1.52;;
75768;SDS011;64379;48.888;8.330;2022-11-21T01:23:29;3.95;;;1.15;;
75768;SDS011;64379;48.888;8.330;2022-11-21T01:25:59;4.60;;;0.90;;
75768;SDS011;64379;48.888;8.330;2022-11-21T01:28:35;1.08;;;0.63;;
75768;SDS011;64379;48.888;8.330;2022-11-21T01:33:34;2.55;;;0.77;;
75768;SDS011;64379;48.888;8.330;2022-11-21T01:38:38;2.55;;;0.85;;
75768;SDS011;64379;48.888;8.330;2022-11-21T01:41:06;5.93;;;1.00;;
75768;SDS011;64379;48.888;8.330;2022-11-21T01:43:33;2.60;;;0.98;;
75768;SDS011;64379;48.888;8.330;2022-11-21T01:51:00;3.45;;;0.55;;
75768;SDS011;64379;48.888;8.330;2022-11-21T01:53:32;2.92;;;0.52;;
75768;SDS011;64379;48.888;8.330;2022-11-21T01:55:58;2.47;;;0.70;;
75768;SDS011;64379;48.888;8.330;2022-11-21T01:58:24;4.05;;;0.80;;
75768;SDS011;64379;48.888;8.330;2022-11-21T02:00:50;1.42;;;0.50;;
75768;SDS011;64379;48.888;8.330;2022-11-21T02:03:18;1.55;;;0.50;;
75768;SDS011;64379;48.888;8.330;2022-11-21T02:05:46;1.80;;;0.55;;
75768;SDS011;64379;48.888;8.330;2022-11-21T02:08:14;1.08;;;0.43;;
75768;SDS011;64379;48.888;8.330;2022-11-21T02:10:49;4.53;;;1.02;;
75768;SDS011;64379;48.888;8.330;2022-11-21T02:13:21;2.03;;;0.75;;
75768;SDS011;64379;48.888;8.330;2022-11-21T02:15:47;3.50;;;0.70;;
75768;SDS011;64379;48.888;8.330;2022-11-21T02:18:12;4.97;;;1.40;;
75768;SDS011;64379;48.888;8.330;2022-11-21T02:20:38;3.42;;;0.90;;
75768;SDS011;64379;48.888;8.330;2022-11-21T02:23:24;2.15;;;0.80;;
75768;SDS011;64379;48.888;8.330;2022-11-21T02:26:03;1.02;;;0.50;;
75768;SDS011;64379;48.888;8.330;2022-11-21T02:28:29;1.75;;;0.70;;
75768;SDS011;64379;48.888;8.330;2022-11-21T02:30:55;2.13;;;0.57;;
75768;SDS011;64379;48.888;8.330;2022-11-21T02:33:21;2.00;;;0.43;;
75768;SDS011;64379;48.888;8.330;2022-11-21T02:35:56;2.17;;;0.43;;
75768;SDS011;64379;48.888;8.330;2022-11-21T02:38:31;1.65;;;0.52;;
75768;SDS011;64379;48.888;8.330;2022-11-21T02:46:10;2.08;;;0.50;;
75768;SDS011;64379;48.888;8.330;2022-11-21T02:48:36;0.35;;;0.28;;
75768;SDS011;64379;48.888;8.330;2022-11-21T02:51:03;1.92;;;0.57;;
75768;SDS011;64379;48.888;8.330;2022-11-21T02:53:29;2.72;;;0.60;;
75768;SDS011;64379;48.888;8.330;2022-11-21T02:55:54;1.25;;;0.30;;
75768;SDS011;64379;48.888;8.330;2022-11-21T02:58:20;2.15;;;0.43;;
75768;SDS011;64379;48.888;8.330;2022-11-21T03:00:45;2.55;;;0.93;;
75768;SDS011;64379;48.888;8.330;2022-11-21T03:03:11;4.07;;;1.00;;
75768;SDS011;64379;48.888;8.330;2022-11-21T03:05:37;2.75;;;0.55;;
75768;SDS011;64379;48.888;8.330;2022-11-21T03:08:03;1.23;;;0.65;;
75768;SDS011;64379;48.888;8.330;2022-11-21T03:10:29;1.67;;;0.70;;
75768;SDS011;64379;48.888;8.330;2022-11-21T03:12:55;1.67;;;0.68;;
75768;SDS011;64379;48.888;8.330;2022-11-21T03:15:25;3.20;;;0.68;;
75768;SDS011;64379;48.888;8.330;2022-11-21T03:17:52;2.40;;;0.90;;
75768;SDS011;64379;48.888;8.330;2022-11-21T03:20:18;3.70;;;0.70;;
75768;SDS011;64379;48.888;8.330;2022-11-21T03:22:44;3.42;;;0.70;;
75768;SDS011;64379;48.888;8.330;2022-11-21T03:25:09;5.78;;;0.88;;
75768;SDS011;64379;48.888;8.330;2022-11-21T03:27:35;3.22;;;0.70;;
75768;SDS011;64379;48.888;8.330;2022-11-21T03:30:00;2.72;;;0.63;;
75768;SDS011;64379;48.888;8.330;2022-11-21T03:32:26;1.67;;;0.82;;
75768;SDS011;64379;48.888;8.330;2022-11-21T03:34:51;2.22;;;0.47;;
75768;SDS011;64379;48.888;8.330;2022-11-21T03:37:17;3.03;;;0.90;;
75768;SDS011;64379;48.888;8.330;2022-11-21T03:39:43;4.03;;;0.60;;
75768;SDS011;64379;48.888;8.330;2022-11-21T03:42:08;1.40;;;0.50;;
75768;SDS011;64379;48.888;8.330;2022-11-21T03:44:34;1.35;;;0.50;;
75768;SDS011;64379;48.888;8.330;2022-11-21T03:47:00;4.47;;;0.95;;
75768;SDS011;64379;48.888;8.330;2022-11-21T03:49:25;5.90;;;0.95;;
75768;SDS011;64379;48.888;8.330;2022-11-21T03:51:51;2.90;;;0.90;;
75768;SDS011;64379;48.888;8.330;2022-11-21T03:54:16;1.95;;;0.68;;
75768;SDS011;64379;48.888;8.330;2022-11-21T03:56:42;2.42;;;0.70;;
75768;SDS011;64379;48.888;8.330;2022-11-21T03:59:07;5.45;;;1.05;;
75768;SDS011;64379;48.888;8.330;2022-11-21T04:01:33;3.08;;;0.77;;
75768;SDS011;64379;48.888;8.330;2022-11-21T04:03:59;2.10;;;0.55;;
75768;SDS011;64379;48.888;8.330;2022-11-21T04:06:24;3.85;;;0.90;;
75768;SDS011;64379;48.888;8.330;2022-11-21T04:08:50;2.03;;;0.68;;
75768;SDS011;64379;48.888;8.330;2022-11-21T04:11:16;6.05;;;0.73;;
75768;SDS011;64379;48.888;8.330;2022-11-21T04:13:42;3.00;;;0.90;;
75768;SDS011;64379;48.888;8.330;2022-11-21T04:16:08;3.83;;;0.77;;
75768;SDS011;64379;48.888;8.330;2022-11-21T04:18:34;1.75;;;0.70;;
75768;SDS011;64379;48.888;8.330;2022-11-21T04:21:03;4.00;;;0.85;;
75768;SDS011;64379;48.888;8.330;2022-11-21T04:23:30;2.50;;;0.93;;
75768;SDS011;64379;48.888;8.330;2022-11-21T04:25:55;3.42;;;0.90;;
75768;SDS011;64379;48.888;8.330;2022-11-21T04:28:21;1.92;;;0.70;;
75768;SDS011;64379;48.888;8.330;2022-11-21T04:30:46;0.90;;;0.30;;
75768;SDS011;64379;48.888;8.330;2022-11-21T04:33:13;0.82;;;0.40;;
75768;SDS011;64379;48.888;8.330;2022-11-21T04:35:41;2.88;;;0.80;;
75768;SDS011;64379;48.888;8.330;2022-11-21T04:38:08;2.60;;;0.70;;
75768;SDS011;64379;48.888;8.330;2022-11-21T04:40:34;1.48;;;0.63;;
75768;SDS011;64379;48.888;8.330;2022-11-21T04:43:00;3.70;;;0.80;;
75768;SDS011;64379;48.888;8.330;2022-11-21T04:45:26;2.63;;;0.77;;
75768;SDS011;64379;48.888;8.330;2022-11-21T04:47:51;1.23;;;0.38;;
75768;SDS011;64379;48.888;8.330;2022-11-21T04:50:17;3.67;;;0.88;;
75768;SDS011;64379;48.888;8.330;2022-11-21T04:52:50;2.03;;;0.95;;
75768;SDS011;64379;48.888;8.330;2022-11-21T04:55:17;1.85;;;0.50;;
75768;SDS011;64379;48.888;8.330;2022-11-21T04:57:44;2.45;;;0.70;;
75768;SDS011;64379;48.888;8.330;2022-11-21T05:00:10;2.28;;;1.00;;
75768;SDS011;64379;48.888;8.330;2022-11-21T05:02:36;2.00;;;0.43;;
75768;SDS011;64379;48.888;8.330;2022-11-21T05:05:02;2.25;;;0.75;;
75768;SDS011;64379;48.888;8.330;2022-11-21T05:07:27;2.13;;;0.60;;
75768;SDS011;64379;48.888;8.330;2022-11-21T05:09:53;6.72;;;1.27;;
75768;SDS011;64379;48.888;8.330;2022-11-21T05:12:19;3.30;;;0.77;;
75768;SDS011;64379;48.888;8.330;2022-11-21T05:15:03;2.53;;;0.90;;
75768;SDS011;64379;48.888;8.330;2022-11-21T05:17:29;2.95;;;0.95;;
75768;SDS011;64379;48.888;8.330;2022-11-21T05:19:54;2.33;;;0.80;;
75768;SDS011;64379;48.888;8.330;2022-11-21T05:22:20;4.60;;;0.90;;
75768;SDS011;64379;48.888;8.330;2022-11-21T05:24:46;3.40;;;0.50;;
75768;SDS011;64379;48.888;8.330;2022-11-21T05:27:11;5.10;;;0.95;;
75768;SDS011;64379;48.888;8.330;2022-11-21T05:29:37;3.00;;;0.80;;
75768;SDS011;64379;48.888;8.330;2022-11-21T05:32:02;6.00;;;0.77;;
75768;SDS011;64379;48.888;8.330;2022-11-21T05:34:28;1.92;;;0.47;;
75768;SDS011;64379;48.888;8.330;2022-11-21T05:36:54;4.60;;;0.90;;
75768;SDS011;64379;48.888;8.330;2022-11-21T05:39:23;6.30;;;0.90;;
75768;SDS011;64379;48.888;8.330;2022-11-21T05:41:49;6.93;;;1.08;;
75768;SDS011;64379;48.888;8.330;2022-11-21T05:44:14;5.95;;;1.05;;
75768;SDS011;64379;48.888;8.330;2022-11-21T05:46:40;5.15;;;1.08;;
75768;SDS011;64379;48.888;8.330;2022-11-21T05:49:05;3.33;;;0.95;;
75768;SDS011;64379;48.888;8.330;2022-11-21T05:51:32;2.63;;;0.60;;
75768;SDS011;64379;48.888;8.330;2022-11-21T05:53:58;1.85;;;0.70;;
75768;SDS011;64379;48.888;8.330;2022-11-21T05:56:23;6.43;;;1.45;;
75768;SDS011;64379;48.888;8.330;2022-11-21T05:58:49;2.95;;;0.93;;
75768;SDS011;64379;48.888;8.330;2022-11-21T06:01:15;1.92;;;0.77;;
75768;SDS011;64379;48.888;8.330;2022-11-21T06:04:00;3.13;;;1.15;;
75768;SDS011;64379;48.888;8.330;2022-11-21T06:06:26;4.47;;;1.20;;
75768;SDS011;64379;48.888;8.330;2022-11-21T06:08:52;5.25;;;1.52;;
75768;SDS011;64379;48.888;8.330;2022-11-21T06:11:17;4.25;;;1.27;;
75768;SDS011;64379;48.888;8.330;2022-11-21T06:13:43;5.93;;;1.27;;
75768;SDS011;64379;48.888;8.330;2022-11-21T06:16:10;12.85;;;1.40;;
75768;SDS011;64379;48.888;8.330;2022-11-21T06:18:37;4.03;;;0.90;;
75768;SDS011;64379;48.888;8.330;2022-11-21T06:23:43;3.05;;;0.93;;
75768;SDS011;64379;48.888;8.330;2022-11-21T06:26:14;5.25;;;1.30;;
75768;SDS011;64379;48.888;8.330;2022-11-21T06:28:41;5.70;;;0.98;;
75768;SDS011;64379;48.888;8.330;2022-11-21T06:31:11;4.38;;;1.17;;
75768;SDS011;64379;48.888;8.330;2022-11-21T06:33:42;3.42;;;0.90;;
75768;SDS011;64379;48.888;8.330;2022-11-21T06:36:09;6.57;;;1.02;;
75768;SDS011;64379;48.888;8.330;2022-11-21T06:38:36;1.27;;;0.60;;
75768;SDS011;64379;48.888;8.330;2022-11-21T06:41:06;2.72;;;0.80;;
75768;SDS011;64379;48.888;8.330;2022-11-21T06:43:36;5.82;;;1.08;;
75768;SDS011;64379;48.888;8.330;2022-11-21T06:46:02;2.10;;;0.88;;
75768;SDS011;64379;48.888;8.330;2022-11-21T06:48:29;4.40;;;0.90;;
75768;SDS011;64379;48.888;8.330;2022-11-21T06:50:55;1.33;;;0.70;;
75768;SDS011;64379;48.888;8.330;2022-11-21T06:53:21;4.13;;;1.00;;
75768;SDS011;64379;48.888;8.330;2022-11-21T06:55:46;7.70;;;1.25;;
75768;SDS011;64379;48.888;8.330;2022-11-21T06:58:12;4.10;;;0.93;;
75768;SDS011;64379;48.888;8.330;2022-11-21T07:00:37;1.55;;;0.93;;
75768;SDS011;64379;48.888;8.330;2022-11-21T07:03:03;6.07;;;0.93;;
75768;SDS011;64379;48.888;8.330;2022-11-21T07:05:29;6.03;;;0.90;;
75768;SDS011;64379;48.888;8.330;2022-11-21T07:07:58;7.78;;;1.38;;
75768;SDS011;64379;48.888;8.330;2022-11-21T07:10:24;4.38;;;1.15;;
75768;SDS011;64379;48.888;8.330;2022-11-21T07:12:50;2.53;;;0.65;;
75768;SDS011;64379;48.888;8.330;2022-11-21T07:15:34;9.15;;;0.70;;
75768;SDS011;64379;48.888;8.330;2022-11-21T07:18:03;2.47;;;0.70;;
75768;SDS011;64379;48.888;8.330;2022-11-21T07:20:29;5.80;;;1.10;;
75768;SDS011;64379;48.888;8.330;2022-11-21T07:22:54;4.32;;;0.80;;
75768;SDS011;64379;48.888;8.330;2022-11-21T07:25:20;2.70;;;1.17;;
75768;SDS011;64379;48.888;8.330;2022-11-21T07:27:46;3.42;;;1.00;;
75768;SDS011;64379;48.888;8.330;2022-11-21T07:30:12;3.22;;;0.70;;
75768;SDS011;64379;48.888;8.330;2022-11-21T07:32:38;8.23;;;1.17;;
75768;SDS011;64379;48.888;8.330;2022-11-21T07:35:04;6.38;;;1.35;;
75768;SDS011;64379;48.888;8.330;2022-11-21T07:37:30;8.43;;;0.73;;
75768;SDS011;64379;48.888;8.330;2022-11-21T07:39:56;4.18;;;0.70;;
75768;SDS011;64379;48.888;8.330;2022-11-21T07:42:21;4.07;;;1.20;;
75768;SDS011;64379;48.888;8.330;2022-11-21T07:44:47;4.07;;;1.05;;
75768;SDS011;64379;48.888;8.330;2022-11-21T07:47:12;5.88;;;1.27;;
75768;SDS011;64379;48.888;8.330;2022-11-21T07:49:38;5.15;;;0.95;;
75768;SDS011;64379;48.888;8.330;2022-11-21T07:52:04;3.88;;;1.10;;
75768;SDS011;64379;48.888;8.330;2022-11-21T07:54:29;5.05;;;1.10;;
75768;SDS011;64379;48.888;8.330;2022-11-21T07:56:55;4.43;;;0.93;;
75768;SDS011;64379;48.888;8.330;2022-11-21T07:59:20;5.82;;;1.00;;
75768;SDS011;64379;48.888;8.330;2022-11-21T08:01:46;1.58;;;0.70;;
75768;SDS011;64379;48.888;8.330;2022-11-21T08:04:12;5.00;;;1.00;;
75768;SDS011;64379;48.888;8.330;2022-11-21T08:06:37;11.90;;;1.70;;
75768;SDS011;64379;48.888;8.330;2022-11-21T08:09:03;9.80;;;1.33;;
75768;SDS011;64379;48.888;8.330;2022-11-21T08:11:28;5.18;;;1.27;;
75768;SDS011;64379;48.888;8.330;2022-11-21T08:13:57;3.50;;;0.85;;
75768;SDS011;64379;48.888;8.330;2022-11-21T08:16:23;6.43;;;1.20;;
75768;SDS011;64379;48.888;8.330;2022-11-21T08:18:51;5.07;;;1.15;;
75768;SDS011;64379;48.888;8.330;2022-11-21T08:21:17;8.88;;;1.48;;
75768;SDS011;64379;48.888;8.330;2022-11-21T08:23:43;5.22;;;1.13;;
75768;SDS011;64379;48.888;8.330;2022-11-21T08:26:09;5.03;;;1.05;;
75768;SDS011;64379;48.888;8.330;2022-11-21T08:28:34;5.07;;;1.58;;
75768;SDS011;64379;48.888;8.330;2022-11-21T08:31:04;5.95;;;1.20;;
75768;SDS011;64379;48.888;8.330;2022-11-21T08:33:30;7.53;;;1.13;;
75768;SDS011;64379;48.888;8.330;2022-11-21T08:35:56;7.95;;;1.20;;
75768;SDS011;64379;48.888;8.330;2022-11-21T08:38:22;5.85;;;1.27;;
75768;SDS011;64379;48.888;8.330;2022-11-21T08:40:48;5.78;;;1.35;;
75768;SDS011;64379;48.888;8.330;2022-11-21T08:43:33;4.82;;;1.10;;
75768;SDS011;64379;48.888;8.330;2022-11-21T08:45:59;5.13;;;0.95;;
75768;SDS011;64379;48.888;8.330;2022-11-21T08:48:24;7.53;;;1.52;;
75768;SDS011;64379;48.888;8.330;2022-11-21T08:50:50;7.93;;;1.42;;
75768;SDS011;64379;48.888;8.330;2022-11-21T08:53:15;4.65;;;1.30;;
75768;SDS011;64379;48.888;8.330;2022-11-21T08:55:41;5.40;;;1.50;;
75768;SDS011;64379;48.888;8.330;2022-11-21T08:58:06;6.70;;;1.35;;
75768;SDS011;64379;48.888;8.330;2022-11-21T09:00:32;7.68;;;1.20;;
75768;SDS011;64379;48.888;8.330;2022-11-21T09:02:57;10.85;;;2.40;;
75768;SDS011;64379;48.888;8.330;2022-11-21T09:05:27;8.35;;;1.70;;
75768;SDS011;64379;48.888;8.330;2022-11-21T09:07:56;5.47;;;1.48;;
75768;SDS011;64379;48.888;8.330;2022-11-21T09:10:22;4.95;;;1.15;;
75768;SDS011;64379;48.888;8.330;2022-11-21T09:12:49;4.05;;;1.15;;
75768;SDS011;64379;48.888;8.330;2022-11-21T09:15:14;5.80;;;1.33;;
75768;SDS011;64379;48.888;8.330;2022-11-21T09:18:02;5.70;;;1.30;;
75768;SDS011;64379;48.888;8.330;2022-11-21T09:20:28;6.18;;;1.40;;
75768;SDS011;64379;48.888;8.330;2022-11-21T09:23:10;8.20;;;1.48;;
75768;SDS011;64379;48.888;8.330;2022-11-21T09:25:38;6.20;;;1.38;;
75768;SDS011;64379;48.888;8.330;2022-11-21T09:28:05;8.18;;;1.55;;
75768;SDS011;64379;48.888;8.330;2022-11-21T09:30:32;6.57;;;1.35;;
75768;SDS011;64379;48.888;8.330;2022-11-21T09:33:02;8.20;;;1.40;;
75768;SDS011;64379;48.888;8.330;2022-11-21T09:35:30;4.57;;;1.38;;
75768;SDS011;64379;48.888;8.330;2022-11-21T09:37:55;3.72;;;1.02;;
75768;SDS011;64379;48.888;8.330;2022-11-21T09:40:22;6.90;;;1.50;;
75768;SDS011;64379;48.888;8.330;2022-11-21T09:42:57;8.13;;;1.40;;
75768;SDS011;64379;48.888;8.330;2022-11-21T09:45:25;5.43;;;1.30;;
75768;SDS011;64379;48.888;8.330;2022-11-21T09:50:53;6.93;;;1.77;;
75768;SDS011;64379;48.888;8.330;2022-11-21T09:53:35;9.15;;;1.60;;
75768;SDS011;64379;48.888;8.330;2022-11-21T09:56:08;6.90;;;1.48;;
75768;SDS011;64379;48.888;8.330;2022-11-21T10:01:36;7.38;;;1.40;;
75768;SDS011;64379;48.888;8.330;2022-11-21T10:04:02;6.78;;;1.52;;
75768;SDS011;64379;48.888;8.330;2022-11-21T10:06:31;4.85;;;1.00;;
75768;SDS011;64379;48.888;8.330;2022-11-21T10:25:54;1.65;;;0.60;;
75768;SDS011;64379;48.888;8.330;2022-11-21T10:31:27;7.18;;;1.60;;
75768;SDS011;64379;48.888;8.330;2022-11-21T10:33:55;2.75;;;0.57;;
75768;SDS011;64379;48.888;8.330;2022-11-21T10:36:32;2.85;;;0.80;;
75768;SDS011;64379;48.888;8.330;2022-11-21T10:39:06;7.30;;;1.02;;
75768;SDS011;64379;48.888;8.330;2022-11-21T10:44:25;7.25;;;1.42;;
75768;SDS011;64379;48.888;8.330;2022-11-21T10:47:14;3.90;;;0.90;;
75768;SDS011;64379;48.888;8.330;2022-11-21T10:49:59;5.22;;;1.33;;
75768;SDS011;64379;48.888;8.330;2022-11-21T10:52:30;6.28;;;1.20;;
75768;SDS011;64379;48.888;8.330;2022-11-21T10:57:27;3.45;;;1.10;;
75768;SDS011;64379;48.888;8.330;2022-11-21T11:02:25;4.88;;;1.00;;
75768;SDS011;64379;48.888;8.330;2022-11-21T11:10:27;6.63;;;1.13;;
75768;SDS011;64379;48.888;8.330;2022-11-21T11:12:53;6.65;;;1.30;;
75768;SDS011;64379;48.888;8.330;2022-11-21T11:15:50;3.65;;;1.10;;
75768;SDS011;64379;48.888;8.330;2022-11-21T11:20:52;4.22;;;0.93;;
75768;SDS011;64379;48.888;8.330;2022-11-21T11:23:32;4.03;;;0.98;;
75768;SDS011;64379;48.888;8.330;2022-11-21T11:25:58;6.50;;;1.15;;
75768;SDS011;64379;48.888;8.330;2022-11-21T11:28:25;5.18;;;1.10;;
75768;SDS011;64379;48.888;8.330;2022-11-21T11:30:57;7.32;;;0.93;;
75768;SDS011;64379;48.888;8.330;2022-11-21T11:38:54;4.25;;;1.13;;
75768;SDS011;64379;48.888;8.330;2022-11-21T11:47:58;7.22;;;1.10;;
75768;SDS011;64379;48.888;8.330;2022-11-21T11:50:37;5.65;;;1.08;;
75768;SDS011;64379;48.888;8.330;2022-11-21T11:53:14;6.35;;;1.60;;
75768;SDS011;64379;48.888;8.330;2022-11-21T11:58:32;3.15;;;0.60;;
75768;SDS011;64379;48.888;8.330;2022-11-21T12:04:20;5.00;;;0.98;;
75768;SDS011;64379;48.888;8.330;2022-11-21T12:06:54;10.30;;;1.40;;
75768;SDS011;64379;48.888;8.330;2022-11-21T12:20:32;3.92;;;0.75;;
75768;SDS011;64379;48.888;8.330;2022-11-21T12:23:01;7.60;;;0.90;;
75768;SDS011;64379;48.888;8.330;2022-11-21T12:25:29;5.63;;;1.15;;
75768;SDS011;64379;48.888;8.330;2022-11-21T12:28:00;5.55;;;1.13;;
75768;SDS011;64379;48.888;8.330;2022-11-21T12:33:25;6.15;;;0.90;;
75768;SDS011;64379;48.888;8.330;2022-11-21T12:36:01;4.80;;;1.05;;
75768;SDS011;64379;48.888;8.330;2022-11-21T12:50:36;2.85;;;0.75;;
75768;SDS011;64379;48.888;8.330;2022-11-21T12:57:11;6.80;;;1.27;;
75768;SDS011;64379;48.888;8.330;2022-11-21T13:05:40;6.35;;;0.90;;
75768;SDS011;64379;48.888;8.330;2022-11-21T13:08:13;3.45;;;0.68;;
75768;SDS011;64379;48.888;8.330;2022-11-21T13:10:55;5.03;;;1.00;;
75768;SDS011;64379;48.888;8.330;2022-11-21T13:13:55;5.53;;;1.15;;
75768;SDS011;64379;48.888;8.330;2022-11-21T13:16:28;6.05;;;1.00;;
75768;SDS011;64379;48.888;8.330;2022-11-21T13:19:10;3.97;;;0.73;;
75768;SDS011;64379;48.888;8.330;2022-11-21T13:21:49;5.75;;;1.23;;
75768;SDS011;64379;48.888;8.330;2022-11-21T13:27:24;7.90;;;2.20;;
75768;SDS011;64379;48.888;8.330;2022-11-21T13:45:40;7.43;;;1.40;;
75768;SDS011;64379;48.888;8.330;2022-11-21T14:06:38;8.02;;;1.80;;
75768;SDS011;64379;48.888;8.330;2022-11-21T14:11:56;2.75;;;0.90;;
75768;SDS011;64379;48.888;8.330;2022-11-21T14:17:04;3.55;;;0.95;;
75768;SDS011;64379;48.888;8.330;2022-11-21T14:23:19;5.15;;;1.17;;
75768;SDS011;64379;48.888;8.330;2022-11-21T14:25:47;4.80;;;1.17;;
75768;SDS011;64379;48.888;8.330;2022-11-21T14:28:35;6.22;;;1.10;;
75768;SDS011;64379;48.888;8.330;2022-11-21T14:31:02;4.78;;;1.10;;
75768;SDS011;64379;48.888;8.330;2022-11-21T14:41:45;6.53;;;1.08;;
75768;SDS011;64379;48.888;8.330;2022-11-21T14:44:11;7.45;;;1.08;;
75768;SDS011;64379;48.888;8.330;2022-11-21T14:46:40;7.68;;;1.83;;
75768;SDS011;64379;48.888;8.330;2022-11-21T14:51:42;4.53;;;0.77;;
75768;SDS011;64379;48.888;8.330;2022-11-21T14:54:13;4.05;;;1.08;;
75768;SDS011;64379;48.888;8.330;2022-11-21T14:56:42;4.10;;;1.13;;
75768;SDS011;64379;48.888;8.330;2022-11-21T14:59:18;4.90;;;0.70;;
75768;SDS011;64379;48.888;8.330;2022-11-21T15:01:53;3.80;;;1.10;;
75768;SDS011;64379;48.888;8.330;2022-11-21T15:04:31;5.47;;;1.10;;
75768;SDS011;64379;48.888;8.330;2022-11-21T15:06:58;3.20;;;0.80;;
75768;SDS011;64379;48.888;8.330;2022-11-21T15:09:24;6.07;;;1.08;;
75768;SDS011;64379;48.888;8.330;2022-11-21T15:16:56;5.72;;;0.95;;
75768;SDS011;64379;48.888;8.330;2022-11-21T15:19:25;5.65;;;0.90;;
75768;SDS011;64379;48.888;8.330;2022-11-21T15:21:57;7.00;;;1.20;;
75768;SDS011;64379;48.888;8.330;2022-11-21T15:26:55;4.57;;;0.90;;
75768;SDS011;64379;48.888;8.330;2022-11-21T15:29:21;3.85;;;1.05;;
75768;SDS011;64379;48.888;8.330;2022-11-21T15:32:06;6.30;;;1.02;;
75768;SDS011;64379;48.888;8.330;2022-11-21T15:34:36;4.75;;;1.17;;
75768;SDS011;64379;48.888;8.330;2022-11-21T15:37:03;5.65;;;1.08;;
75768;SDS011;64379;48.888;8.330;2022-11-21T15:39:50;7.00;;;1.60;;
75768;SDS011;64379;48.888;8.330;2022-11-21T15:44:59;4.88;;;1.30;;
75768;SDS011;64379;48.888;8.330;2022-11-21T15:47:26;6.88;;;2.17;;
75768;SDS011;64379;48.888;8.330;2022-11-21T15:49:52;7.20;;;2.03;;
75768;SDS011;64379;48.888;8.330;2022-11-21T15:52:18;6.82;;;1.38;;
75768;SDS011;64379;48.888;8.330;2022-11-21T15:54:44;6.10;;;1.67;;
75768;SDS011;64379;48.888;8.330;2022-11-21T15:57:10;6.30;;;1.55;;
75768;SDS011;64379;48.888;8.330;2022-11-21T15:59:35;6.53;;;1.48;;
75768;SDS011;64379;48.888;8.330;2022-11-21T16:02:01;7.38;;;1.60;;
75768;SDS011;64379;48.888;8.330;2022-11-21T16:04:27;5.60;;;1.65;;
75768;SDS011;64379;48.888;8.330;2022-11-21T16:06:53;5.82;;;1.33;;
75768;SDS011;64379;48.888;8.330;2022-11-21T16:09:19;5.75;;;1.83;;
75768;SDS011;64379;48.888;8.330;2022-11-21T16:11:45;5.40;;;1.35;;
75768;SDS011;64379;48.888;8.330;2022-11-21T16:14:11;6.35;;;1.35;;
75768;SDS011;64379;48.888;8.330;2022-11-21T16:16:39;7.70;;;1.50;;
75768;SDS011;64379;48.888;8.330;2022-11-21T16:19:06;7.65;;;1.75;;
75768;SDS011;64379;48.888;8.330;2022-11-21T16:21:32;6.28;;;1.73;;
75768;SDS011;64379;48.888;8.330;2022-11-21T16:23:57;7.15;;;2.00;;
75768;SDS011;64379;48.888;8.330;2022-11-21T16:26:23;7.47;;;1.90;;
75768;SDS011;64379;48.888;8.330;2022-11-21T16:28:55;8.50;;;1.95;;
75768;SDS011;64379;48.888;8.330;2022-11-21T16:31:22;6.28;;;2.47;;
75768;SDS011;64379;48.888;8.330;2022-11-21T16:33:49;7.80;;;3.05;;
75768;SDS011;64379;48.888;8.330;2022-11-21T16:36:19;8.77;;;2.30;;
75768;SDS011;64379;48.888;8.330;2022-11-21T16:38:46;9.20;;;4.30;;
75768;SDS011;64379;48.888;8.330;2022-11-21T16:41:11;12.80;;;3.90;;
75768;SDS011;64379;48.888;8.330;2022-11-21T16:43:37;12.07;;;4.22;;
75768;SDS011;64379;48.888;8.330;2022-11-21T16:46:13;11.20;;;4.07;;
75768;SDS011;64379;48.888;8.330;2022-11-21T16:48:39;12.00;;;4.00;;
75768;SDS011;64379;48.888;8.330;2022-11-21T16:51:11;10.95;;;3.95;;
75768;SDS011;64379;48.888;8.330;2022-11-21T16:53:42;9.65;;;3.15;;
75768;SDS011;64379;48.888;8.330;2022-11-21T16:56:08;8.43;;;1.95;;
75768;SDS011;64379;48.888;8.330;2022-11-21T16:58:35;7.60;;;1.40;;
75768;SDS011;64379;48.888;8.330;2022-11-21T17:01:08;10.85;;;1.70;;
75768;SDS011;64379;48.888;8.330;2022-11-21T17:03:36;6.75;;;1.50;;
75768;SDS011;64379;48.888;8.330;2022-11-21T17:06:03;7.45;;;2.00;;
75768;SDS011;64379;48.888;8.330;2022-11-21T17:08:28;6.22;;;1.77;;
75768;SDS011;64379;48.888;8.330;2022-11-21T17:10:54;9.57;;;2.00;;
75768;SDS011;64379;48.888;8.330;2022-11-21T17:13:20;5.60;;;1.73;;
75768;SDS011;64379;48.888;8.330;2022-11-21T17:15:45;7.68;;;1.55;;
75768;SDS011;64379;48.888;8.330;2022-11-21T17:18:11;7.57;;;2.03;;
75768;SDS011;64379;48.888;8.330;2022-11-21T17:20:36;5.68;;;1.65;;
75768;SDS011;64379;48.888;8.330;2022-11-21T17:23:02;8.13;;;2.03;;
75768;SDS011;64379;48.888;8.330;2022-11-21T17:25:28;8.05;;;2.00;;
75768;SDS011;64379;48.888;8.330;2022-11-21T17:27:53;5.63;;;1.60;;
75768;SDS011;64379;48.888;8.330;2022-11-21T17:30:19;5.97;;;1.98;;
75768;SDS011;64379;48.888;8.330;2022-11-21T17:32:46;7.60;;;1.80;;
75768;SDS011;64379;48.888;8.330;2022-11-21T17:35:12;7.28;;;1.70;;
75768;SDS011;64379;48.888;8.330;2022-11-21T17:37:37;3.90;;;1.40;;
75768;SDS011;64379;48.888;8.330;2022-11-21T17:40:03;6.55;;;1.63;;
75768;SDS011;64379;48.888;8.330;2022-11-21T17:42:30;10.15;;;3.78;;
75768;SDS011;64379;48.888;8.330;2022-11-21T17:44:56;6.35;;;1.95;;
75768;SDS011;64379;48.888;8.330;2022-11-21T17:47:22;27.25;;;12.30;;
75768;SDS011;64379;48.888;8.330;2022-11-21T17:49:48;15.40;;;7.00;;
75768;SDS011;64379;48.888;8.330;2022-11-21T17:52:13;9.27;;;3.25;;
75768;SDS011;64379;48.888;8.330;2022-11-21T17:54:39;8.63;;;2.58;;